createdAt,value
2023-04-28T00:02:23.634Z,4.24
2023-04-28T00:05:36.038Z,4.08
2023-04-28T00:08:48.795Z,4.11
2023-04-28T00:12:01.012Z,4.07
2023-04-28T00:15:15.512Z,4.05
2023-04-28T00:18:29.237Z,4.05
2023-04-28T00:21:41.614Z,4.05
2023-04-28T00:24:53.780Z,4.08
2023-04-28T00:28:05.922Z,4.12
2023-04-28T00:31:21.957Z,4.17
2023-04-28T00:34:34.342Z,4.18
2023-04-28T00:37:46.588Z,4.23
2023-04-28T00:40:58.847Z,4.27
2023-04-28T00:44:11.468Z,4.28
2023-04-28T00:47:25.413Z,4.36
2023-04-28T00:50:37.793Z,4.39
2023-04-28T00:53:50.847Z,4.40
2023-04-28T00:57:03.637Z,4.43
2023-04-28T01:00:19.057Z,4.44
2023-04-28T01:03:31.490Z,4.43
2023-04-28T01:06:45.121Z,4.35
2023-04-28T01:09:57.104Z,4.37
2023-04-28T01:13:11.106Z,4.26
2023-04-28T01:16:26.357Z,4.27
2023-04-28T01:19:39.056Z,4.30
2023-04-28T01:22:52.720Z,4.28
2023-04-28T01:26:05.613Z,4.25
2023-04-28T01:29:19.077Z,4.28
2023-04-28T01:32:31.708Z,4.34
2023-04-28T01:35:43.994Z,4.35
2023-04-28T01:38:56.184Z,4.29
2023-04-28T01:42:09.141Z,4.25
2023-04-28T01:45:21.608Z,4.19
2023-04-28T01:48:33.823Z,4.15
2023-04-28T01:51:46.136Z,4.13
2023-04-28T01:54:59.702Z,4.09
2023-04-28T01:58:12.209Z,4.06
2023-04-28T02:01:24.352Z,4.00
2023-04-28T02:04:36.826Z,4.02
2023-04-28T02:07:49.111Z,3.93
2023-04-28T02:11:01.958Z,3.98
2023-04-28T02:14:14.592Z,3.96
2023-04-28T02:17:27.303Z,4.08
2023-04-28T02:20:39.505Z,4.18
2023-04-28T02:23:53.339Z,4.27
2023-04-28T02:27:05.527Z,4.28
2023-04-28T02:30:19.668Z,4.18
2023-04-28T02:33:31.805Z,4.20
2023-04-28T02:36:45.168Z,4.15
2023-04-28T02:39:58.542Z,4.00
2023-04-28T02:43:10.916Z,3.98
2023-04-28T02:46:22.975Z,4.01
2023-04-28T02:49:35.131Z,4.11
2023-04-28T02:52:49.053Z,4.16
2023-04-28T02:56:02.474Z,4.17
2023-04-28T02:59:15.276Z,4.21
2023-04-28T03:02:27.442Z,4.22
2023-04-28T03:05:39.798Z,4.09
2023-04-28T03:08:52.094Z,4.10
2023-04-28T03:12:04.080Z,4.05
2023-04-28T03:15:18.712Z,4.09
2023-04-28T03:18:31.292Z,4.09
2023-04-28T03:21:43.985Z,4.01
2023-04-28T03:24:57.852Z,3.85
2023-04-28T03:28:10.902Z,3.86
2023-04-28T03:31:23.109Z,3.87
2023-04-28T03:34:35.487Z,3.88
2023-04-28T03:37:48.713Z,3.88
2023-04-28T03:41:01.068Z,3.90
2023-04-28T03:44:31.765Z,3.87
2023-04-28T03:47:44.402Z,3.87
2023-04-28T03:50:56.779Z,3.89
2023-04-28T03:54:10.598Z,3.91
2023-04-28T03:57:22.832Z,3.88
2023-04-28T04:00:36.916Z,3.81
2023-04-28T04:03:49.234Z,3.68
2023-04-28T04:07:05.094Z,3.69
2023-04-28T04:10:18.829Z,3.70
2023-04-28T04:13:31.141Z,3.78
2023-04-28T04:16:43.531Z,3.74
2023-04-28T04:19:55.675Z,3.79
2023-04-28T04:23:08.015Z,3.84
2023-04-28T04:26:21.933Z,3.82
2023-04-28T04:29:35.974Z,3.86
2023-04-28T04:32:49.785Z,3.88
2023-04-28T04:36:02.149Z,3.77
2023-04-28T04:39:15.554Z,3.88
2023-04-28T05:00:58.002Z,4.77
2023-04-28T05:04:11.296Z,4.89
2023-04-28T05:07:23.836Z,5.01
2023-04-28T05:10:36.002Z,5.18
2023-04-28T05:13:48.869Z,5.71
2023-04-28T05:17:01.587Z,6.17
2023-04-28T05:20:18.026Z,6.63
2023-04-28T05:23:30.434Z,6.98
2023-04-28T05:26:43.457Z,7.11
2023-04-28T06:29:24.950Z,11.97
2023-04-28T06:32:37.796Z,12.60
2023-04-28T06:35:53.257Z,13.00
2023-04-28T06:39:05.997Z,13.46
2023-04-28T06:42:20.916Z,13.74
2023-04-28T06:45:34.916Z,14.41
2023-04-28T06:48:48.932Z,14.54
2023-04-28T06:52:02.466Z,14.67
2023-04-28T06:55:20.605Z,14.91
2023-04-28T06:58:33.426Z,14.98
2023-04-28T07:01:46.270Z,15.07
2023-04-28T07:04:58.746Z,15.26
2023-04-28T07:08:12.177Z,15.40
2023-04-28T07:11:25.216Z,15.82
2023-04-28T07:14:37.730Z,15.80
2023-04-28T07:17:50.089Z,16.08
2023-04-28T07:21:04.832Z,15.92
2023-04-28T07:24:17.985Z,16.14
2023-04-28T07:27:31.061Z,15.80
2023-04-28T07:30:43.523Z,15.78
2023-04-28T07:33:55.797Z,15.21
2023-04-28T07:37:08.919Z,15.75
2023-04-28T07:40:22.012Z,15.66
2023-04-28T07:43:34.180Z,16.11
2023-04-28T07:46:47.327Z,16.34
2023-04-28T07:50:00.818Z,15.92
2023-04-28T07:53:13.123Z,16.11
2023-04-28T07:56:26.222Z,16.10
2023-04-28T07:59:38.861Z,16.20
2023-04-28T08:02:51.578Z,16.24
2023-04-28T08:06:05.151Z,15.91
2023-04-28T08:09:17.863Z,15.85
2023-04-28T08:12:30.354Z,15.53
2023-04-28T08:15:42.796Z,15.76
2023-04-28T08:18:55.422Z,16.20
2023-04-28T08:22:08.423Z,16.12
2023-04-28T08:25:21.051Z,16.28
2023-04-28T08:28:34.357Z,16.51
2023-04-28T08:31:47.514Z,16.82
2023-04-28T08:35:00.714Z,16.40
2023-04-28T08:38:15.518Z,16.40
2023-04-28T08:41:28.189Z,16.54
2023-04-28T08:44:45.014Z,16.88
2023-04-28T08:47:58.432Z,16.78
2023-04-28T08:51:13.010Z,17.02
2023-04-28T08:54:27.055Z,17.16
2023-04-28T08:57:44.783Z,17.34
2023-04-28T09:00:57.501Z,18.08
2023-04-28T09:04:13.473Z,17.57
2023-04-28T09:07:25.425Z,18.30
2023-04-28T09:10:38.431Z,19.35
2023-04-28T09:13:52.987Z,18.56
2023-04-28T09:17:05.706Z,18.61
2023-04-28T09:20:29.658Z,19.14
2023-04-28T09:23:52.939Z,19.67
2023-04-28T09:27:07.843Z,19.34
2023-04-28T09:30:21.535Z,19.75
2023-04-28T09:33:41.779Z,19.26
2023-04-28T09:36:57.699Z,19.44
2023-04-28T09:40:16.968Z,20.30
2023-04-28T09:43:38.460Z,19.85
2023-04-28T09:46:52.504Z,20.46
2023-04-28T09:50:06.889Z,20.64
2023-04-28T09:53:20.497Z,20.11
2023-04-28T09:56:35.517Z,20.21
2023-04-28T09:59:48.812Z,20.07
2023-04-28T10:03:01.563Z,20.30
2023-04-28T10:06:14.890Z,20.37
2023-04-28T10:09:29.282Z,20.60
2023-04-28T10:12:42.188Z,20.56
2023-04-28T10:15:55.843Z,20.57
2023-04-28T10:19:14.044Z,20.23
2023-04-28T10:22:56.761Z,20.54
2023-04-28T10:26:16.612Z,20.55
2023-04-28T10:29:33.312Z,20.32
2023-04-28T10:32:46.153Z,20.54
2023-04-28T10:35:59.276Z,20.82
2023-04-28T10:39:18.794Z,19.57
2023-04-28T10:43:00.890Z,20.21
2023-04-28T10:46:15.220Z,20.88
2023-04-28T10:49:32.112Z,20.09
2023-04-28T10:53:00.862Z,19.07
2023-04-28T10:56:16.947Z,18.50
2023-04-28T10:59:35.214Z,19.49
2023-04-28T11:02:50.465Z,19.59
2023-04-28T11:06:29.213Z,20.19
2023-04-28T11:09:58.309Z,20.70
2023-04-28T11:13:36.292Z,20.47
2023-04-28T11:16:59.827Z,20.94
2023-04-28T11:20:17.139Z,20.87
2023-04-28T11:23:31.584Z,20.74
2023-04-28T11:26:45.229Z,20.31
2023-04-28T11:29:58.552Z,20.36
2023-04-28T11:33:11.454Z,20.53
2023-04-28T11:36:36.164Z,20.95
2023-04-28T11:39:48.279Z,20.70
2023-04-28T11:43:01.919Z,21.03
2023-04-28T11:46:15.313Z,21.30
2023-04-28T11:49:29.303Z,21.12
2023-04-28T11:52:41.731Z,21.15
2023-04-28T11:55:53.918Z,21.66
2023-04-28T11:59:12.685Z,21.63
2023-04-28T12:02:33.964Z,21.27
2023-04-28T12:05:53.284Z,20.51
2023-04-28T12:09:06.233Z,20.71
2023-04-28T12:12:22.993Z,21.63
2023-04-28T12:15:47.739Z,21.30
2023-04-28T12:19:09.235Z,20.60
2023-04-28T12:22:21.432Z,20.74
2023-04-28T12:25:34.391Z,20.56
2023-04-28T12:28:47.544Z,20.56
2023-04-28T12:31:59.805Z,20.99
2023-04-28T12:35:13.928Z,21.04
2023-04-28T12:38:26.136Z,21.03
2023-04-28T12:41:38.569Z,20.67
2023-04-28T12:44:50.664Z,20.54
2023-04-28T12:48:03.595Z,20.60
2023-04-28T12:51:15.707Z,20.51
2023-04-28T12:54:28.014Z,20.29
2023-04-28T12:57:40.730Z,20.18
2023-04-28T13:00:52.952Z,20.72
2023-04-28T13:04:05.177Z,20.87
2023-04-28T13:07:17.772Z,20.68
2023-04-28T13:10:30.057Z,20.87
2023-04-28T13:13:43.204Z,20.74
2023-04-28T13:16:55.730Z,21.03
2023-04-28T13:20:08.433Z,21.27
2023-04-28T13:23:20.395Z,21.02
2023-04-28T13:26:32.637Z,21.02
2023-04-28T13:29:44.878Z,20.98
2023-04-28T13:32:57.753Z,20.63
2023-04-28T13:36:11.580Z,20.31
2023-04-28T13:39:23.734Z,20.14
2023-04-28T13:42:36.032Z,20.41
2023-04-28T13:45:48.273Z,20.47
2023-04-28T13:49:00.447Z,20.47
2023-04-28T13:52:12.851Z,20.46
2023-04-28T13:55:27.679Z,20.14
2023-04-28T13:58:41.738Z,19.73
2023-04-28T14:01:53.981Z,19.75
2023-04-28T14:05:06.195Z,19.77
2023-04-28T14:08:20.045Z,19.68
2023-04-28T14:11:32.546Z,19.61
2023-04-28T14:14:44.979Z,19.37
2023-04-28T14:17:58.009Z,19.32
2023-04-28T14:21:10.480Z,19.42
2023-04-28T14:24:22.802Z,19.48
2023-04-28T14:27:35.095Z,19.38
2023-04-28T14:30:47.437Z,19.44
2023-04-28T14:34:00.136Z,19.24
2023-04-28T14:37:12.413Z,19.31
2023-04-28T14:40:24.987Z,19.39
2023-04-28T14:43:38.261Z,19.37
2023-04-28T14:46:50.919Z,19.37
2023-04-28T14:50:03.384Z,19.38
2023-04-28T14:53:15.481Z,19.14
2023-04-28T14:56:29.107Z,18.86
2023-04-28T14:59:41.961Z,18.62
2023-04-28T15:02:54.545Z,18.56
2023-04-28T15:06:07.231Z,18.53
2023-04-28T15:09:19.527Z,18.42
2023-04-28T15:12:34.488Z,18.17
2023-04-28T15:15:46.953Z,18.22
2023-04-28T15:18:59.839Z,18.30
2023-04-28T15:22:12.091Z,18.15
2023-04-28T15:25:24.490Z,17.86
2023-04-28T15:28:36.598Z,17.97
2023-04-28T15:31:49.565Z,17.68
2023-04-28T15:35:01.872Z,17.74
2023-04-28T15:38:15.223Z,17.82
2023-04-28T15:41:27.858Z,17.76
2023-04-28T15:44:40.229Z,17.75
2023-04-28T15:47:55.362Z,17.76
2023-04-28T15:51:07.744Z,17.41
2023-04-28T15:54:21.245Z,17.47
2023-04-28T15:57:33.343Z,17.35
2023-04-28T16:00:46.353Z,17.36
2023-04-28T16:03:58.853Z,17.31
2023-04-28T16:07:11.338Z,17.17
2023-04-28T16:10:23.866Z,17.06
2023-04-28T16:13:37.540Z,16.86
2023-04-28T16:16:49.719Z,16.72
2023-04-28T16:20:02.924Z,16.68
2023-04-28T16:23:15.452Z,16.49
2023-04-28T16:26:28.361Z,16.35
2023-04-28T16:29:40.369Z,16.27
2023-04-28T16:32:53.185Z,16.25
2023-04-28T16:36:05.925Z,16.23
2023-04-28T16:39:18.365Z,16.15
2023-04-28T16:42:30.939Z,16.03
2023-04-28T16:45:43.236Z,15.91
2023-04-28T16:48:55.443Z,15.77
2023-04-28T16:52:09.787Z,15.66
2023-04-28T16:55:22.019Z,15.63
2023-04-28T16:58:34.188Z,15.59
2023-04-28T17:01:46.685Z,15.52
2023-04-28T17:04:59.736Z,15.45
2023-04-28T17:08:12.378Z,15.40
2023-04-28T17:11:25.209Z,15.33
2023-04-28T17:14:37.590Z,15.24
2023-04-28T17:17:50.942Z,15.15
2023-04-28T17:21:04.266Z,15.18
2023-04-28T17:24:16.610Z,15.03
2023-04-28T17:27:29.306Z,14.95
2023-04-28T17:30:46.913Z,14.88
2023-04-28T17:33:59.284Z,14.74
2023-04-28T17:37:11.656Z,14.66
2023-04-28T17:40:24.474Z,14.54
2023-04-28T17:43:37.848Z,14.44
2023-04-28T17:46:50.500Z,14.27
2023-04-28T17:50:03.761Z,14.17
2023-04-28T17:53:17.092Z,14.15
2023-04-28T17:56:29.913Z,14.09
2023-04-28T17:59:42.938Z,14.02
2023-04-28T18:02:55.818Z,13.92
2023-04-28T18:06:09.109Z,13.84
2023-04-28T18:09:21.352Z,13.72
2023-04-28T18:15:34.509Z,13.54
2023-04-28T18:18:48.254Z,13.30
2023-04-28T18:22:00.764Z,13.29
2023-04-28T18:25:16.687Z,13.15
2023-04-28T18:28:29.112Z,13.16
2023-04-28T18:31:42.487Z,13.13
2023-04-28T18:34:56.435Z,12.97
2023-04-28T18:38:09.142Z,12.97
2023-04-28T18:41:24.028Z,12.92
2023-04-28T18:44:37.212Z,12.87
2023-04-28T18:47:49.745Z,12.79
2023-04-28T18:51:03.896Z,12.82
2023-04-28T18:54:17.141Z,12.78
2023-04-28T18:57:29.561Z,12.79
2023-04-28T19:00:42.801Z,12.83
2023-04-28T19:03:55.748Z,12.73
2023-04-28T19:07:08.380Z,12.73
2023-04-28T19:10:21.230Z,12.73
2023-04-28T19:13:33.580Z,12.70
2023-04-28T19:16:46.023Z,12.64
2023-04-28T19:20:00.831Z,12.55
2023-04-28T19:23:13.420Z,12.41
2023-04-28T19:26:25.845Z,12.34
2023-04-28T19:37:26.222Z,12.12
2023-04-28T19:40:38.327Z,12.12
2023-04-28T19:43:50.831Z,11.98
2023-04-28T19:47:03.044Z,11.91
2023-04-28T19:50:29.180Z,11.83
2023-04-28T19:57:24.001Z,11.63
2023-04-28T20:00:36.198Z,11.50
2023-04-28T20:03:48.474Z,11.42
2023-04-28T20:07:12.088Z,11.42
2023-04-28T20:14:26.093Z,11.29
2023-04-28T20:17:38.836Z,11.30
2023-04-28T20:20:51.187Z,11.18
2023-04-28T20:24:03.403Z,11.06
2023-04-28T20:27:16.017Z,11.02
2023-04-28T20:30:39.649Z,10.92
2023-04-28T20:37:32.394Z,10.75
2023-04-28T20:40:45.605Z,10.73
2023-04-28T20:43:58.008Z,10.66
2023-04-28T20:47:23.252Z,10.63
2023-04-28T20:50:39.546Z,10.51
2023-04-28T20:53:53.394Z,10.43
2023-04-28T20:57:06.040Z,10.41
2023-04-28T21:00:20.927Z,10.39
2023-04-28T21:03:34.212Z,10.37
2023-04-28T21:06:46.831Z,10.25
2023-04-28T21:09:59.270Z,10.24
2023-04-28T21:13:14.386Z,10.19
2023-04-28T21:16:29.178Z,10.09
2023-04-28T21:19:42.700Z,9.87
2023-04-28T21:26:38.198Z,9.72
2023-04-28T21:29:50.946Z,9.79
2023-04-28T21:33:03.605Z,9.67
2023-04-28T21:39:57.887Z,9.57
2023-04-28T21:43:10.830Z,9.65
2023-04-28T21:46:23.041Z,9.46
2023-04-28T21:49:35.317Z,9.13
2023-04-28T21:52:47.341Z,9.13
2023-04-28T21:55:59.523Z,9.22
2023-04-28T21:59:11.880Z,9.21
2023-04-28T22:02:25.513Z,9.08
2023-04-28T22:05:38.809Z,8.90
2023-04-28T22:08:50.987Z,8.83
2023-04-28T22:12:03.289Z,8.82
2023-04-28T22:15:17.490Z,8.87
2023-04-28T22:18:29.817Z,8.86
2023-04-28T22:21:42.412Z,8.86
2023-04-28T22:24:54.571Z,8.84
2023-04-28T22:28:06.619Z,8.78
2023-04-28T22:31:18.699Z,8.78
2023-04-28T22:34:30.962Z,8.72
2023-04-28T22:37:43.266Z,8.73
2023-04-28T22:40:55.439Z,8.68
2023-04-28T22:44:07.637Z,8.77
2023-04-28T22:47:19.860Z,8.83
2023-04-28T22:50:32.185Z,8.81
2023-04-28T22:53:44.479Z,8.86
2023-04-28T22:56:56.591Z,8.91
2023-04-28T23:00:09.615Z,8.91
2023-04-28T23:03:22.132Z,8.64
2023-04-28T23:06:34.833Z,8.49
2023-04-28T23:09:46.842Z,8.55
2023-04-28T23:12:58.893Z,8.56
2023-04-28T23:16:12.546Z,8.41
2023-04-28T23:19:24.856Z,8.36
2023-04-28T23:22:37.058Z,8.27
2023-04-28T23:25:51.257Z,8.13
2023-04-28T23:29:03.672Z,8.06
2023-04-28T23:32:15.879Z,7.95
2023-04-28T23:35:28.186Z,8.01
2023-04-28T23:38:40.435Z,8.13
2023-04-28T23:41:53.208Z,8.19
2023-04-28T23:45:07.163Z,8.20
2023-04-28T23:48:19.326Z,8.21
2023-04-28T23:51:32.439Z,8.23
2023-04-28T23:54:44.792Z,8.19
2023-04-28T23:57:57.013Z,8.13
